createdAt,value
2023-04-16T00:00:03.193Z,40.12
2023-04-16T00:01:03.046Z,40.07
2023-04-16T00:02:03.073Z,40.18
2023-04-16T00:03:03.208Z,40.07
2023-04-16T00:04:10.644Z,40.07
2023-04-16T00:05:03.216Z,42.22
2023-04-16T00:06:02.981Z,40.12
2023-04-16T00:07:02.974Z,40.07
2023-04-16T00:08:03.000Z,40.07
2023-04-16T00:09:02.940Z,40.12
2023-04-16T00:10:02.975Z,40.07
2023-04-16T00:11:02.931Z,40.07
2023-04-16T00:12:03.013Z,40.12
2023-04-16T00:13:02.999Z,40.12
2023-04-16T00:14:02.890Z,40.12
2023-04-16T00:15:02.879Z,40.12
2023-04-16T00:16:02.850Z,40.07
2023-04-16T00:17:02.876Z,40.12
2023-04-16T00:18:02.837Z,40.12
2023-04-16T00:19:02.805Z,40.12
2023-04-16T00:20:02.814Z,42.43
2023-04-16T00:21:02.793Z,40.07
2023-04-16T00:22:02.777Z,40.12
2023-04-16T00:23:02.766Z,40.12
2023-04-16T00:24:02.755Z,40.12
2023-04-16T00:25:02.747Z,40.12
2023-04-16T00:26:02.729Z,40.07
2023-04-16T00:27:02.712Z,40.12
2023-04-16T00:28:02.713Z,40.07
2023-04-16T00:29:02.715Z,40.12
2023-04-16T00:30:02.700Z,40.07
2023-04-16T00:31:02.719Z,40.12
2023-04-16T00:32:02.643Z,40.07
2023-04-16T00:33:02.666Z,40.07
2023-04-16T00:34:02.619Z,40.12
2023-04-16T00:35:02.635Z,42.43
2023-04-16T00:36:02.635Z,40.12
2023-04-16T00:37:02.588Z,42.43
2023-04-16T00:38:02.607Z,40.07
2023-04-16T00:39:02.574Z,40.12
2023-04-16T00:40:02.566Z,40.07
2023-04-16T00:41:02.613Z,42.38
2023-04-16T00:42:02.625Z,40.12
2023-04-16T00:43:02.552Z,42.38
2023-04-16T00:44:02.562Z,40.12
2023-04-16T00:45:02.476Z,42.43
2023-04-16T00:46:02.519Z,40.07
2023-04-16T00:47:02.435Z,40.12
2023-04-16T00:48:02.446Z,40.07
2023-04-16T00:49:02.420Z,40.07
2023-04-16T00:50:02.435Z,40.07
2023-04-16T00:51:02.401Z,42.43
2023-04-16T00:52:02.423Z,42.49
2023-04-16T00:53:02.356Z,40.12
2023-04-16T00:54:02.346Z,40.12
2023-04-16T00:55:02.370Z,40.07
2023-04-16T00:56:02.325Z,40.12
2023-04-16T00:57:02.347Z,40.12
2023-04-16T00:58:02.316Z,40.12
2023-04-16T00:59:02.300Z,40.07
2023-04-16T01:00:02.282Z,41.84
2023-04-16T01:01:02.267Z,40.12
2023-04-16T01:02:02.313Z,42.43
2023-04-16T01:03:02.498Z,40.07
2023-04-16T01:04:02.442Z,42.49
2023-04-16T01:05:02.220Z,40.12
2023-04-16T01:06:02.201Z,40.12
2023-04-16T01:07:02.187Z,40.12
2023-04-16T01:08:02.221Z,42.43
2023-04-16T01:09:02.147Z,40.34
2023-04-16T01:10:02.161Z,42.43
2023-04-16T01:11:02.130Z,40.07
2023-04-16T01:12:02.145Z,40.12
2023-04-16T01:13:02.128Z,40.07
2023-04-16T01:14:02.089Z,40.12
2023-04-16T01:15:02.151Z,40.07
2023-04-16T01:16:02.100Z,40.12
2023-04-16T01:17:02.047Z,42.43
2023-04-16T01:18:02.079Z,40.12
2023-04-16T01:19:02.014Z,42.43
2023-04-16T01:20:02.023Z,40.07
2023-04-16T01:21:01.982Z,42.43
2023-04-16T01:22:01.987Z,40.12
2023-04-16T01:23:02.021Z,40.12
2023-04-16T01:24:01.942Z,40.07
2023-04-16T01:25:01.958Z,40.12
2023-04-16T01:26:01.958Z,40.12
2023-04-16T01:27:01.913Z,40.07
2023-04-16T01:28:01.900Z,40.07
2023-04-16T01:29:01.961Z,40.07
2023-04-16T01:30:01.894Z,42.49
2023-04-16T01:31:01.915Z,40.07
2023-04-16T01:32:01.847Z,40.12
2023-04-16T01:33:01.903Z,40.12
2023-04-16T01:34:01.820Z,40.07
2023-04-16T01:35:01.835Z,40.12
2023-04-16T01:36:01.792Z,42.38
2023-04-16T01:37:01.795Z,40.07
2023-04-16T01:38:01.785Z,40.12
2023-04-16T01:39:01.756Z,40.07
2023-04-16T01:40:01.754Z,40.12
2023-04-16T01:41:01.733Z,40.07
2023-04-16T01:42:01.723Z,42.32
2023-04-16T01:43:01.705Z,40.07
2023-04-16T01:44:01.703Z,40.07
2023-04-16T01:45:01.685Z,40.12
2023-04-16T01:46:01.678Z,40.12
2023-04-16T01:47:01.715Z,40.12
2023-04-16T01:48:01.839Z,42.43
2023-04-16T01:49:01.627Z,41.68
2023-04-16T01:50:01.649Z,40.12
2023-04-16T01:51:01.610Z,40.12
2023-04-16T01:52:01.592Z,40.12
2023-04-16T01:53:01.612Z,40.12
2023-04-16T01:54:01.556Z,42.43
2023-04-16T01:55:01.616Z,41.84
2023-04-16T01:56:01.561Z,40.07
2023-04-16T01:57:01.550Z,42.43
2023-04-16T01:58:01.510Z,40.07
2023-04-16T01:59:01.511Z,42.49
2023-04-16T02:00:01.486Z,40.12
2023-04-16T02:01:01.552Z,42.43
2023-04-16T02:02:01.602Z,40.07
2023-04-16T02:03:01.726Z,40.07
2023-04-16T02:04:01.697Z,42.43
2023-04-16T02:05:01.433Z,42.43
2023-04-16T02:06:01.400Z,42.43
2023-04-16T02:07:01.399Z,42.43
2023-04-16T02:08:01.385Z,40.07
2023-04-16T02:09:01.371Z,40.07
2023-04-16T02:10:01.379Z,42.38
2023-04-16T02:11:01.352Z,42.49
2023-04-16T02:12:01.340Z,40.12
2023-04-16T02:13:01.321Z,42.43
2023-04-16T02:14:01.300Z,42.43
2023-04-16T02:15:01.304Z,40.07
2023-04-16T02:16:01.327Z,40.07
2023-04-16T02:17:01.263Z,42.43
2023-04-16T02:18:01.300Z,40.07
2023-04-16T02:19:01.231Z,42.43
2023-04-16T02:20:01.288Z,40.07
2023-04-16T02:21:01.222Z,42.49
2023-04-16T02:22:01.192Z,42.43
2023-04-16T02:23:01.193Z,42.43
2023-04-16T02:24:01.161Z,42.59
2023-04-16T02:25:01.178Z,40.12
2023-04-16T02:26:01.233Z,40.12
2023-04-16T02:27:01.123Z,42.43
2023-04-16T02:28:01.112Z,42.38
2023-04-16T02:29:01.111Z,40.07
2023-04-16T02:30:01.101Z,40.07
2023-04-16T02:31:01.078Z,40.12
2023-04-16T02:32:01.153Z,40.07
2023-04-16T02:33:01.115Z,42.43
2023-04-16T02:34:01.074Z,42.43
2023-04-16T02:35:01.040Z,40.07
2023-04-16T02:36:01.041Z,40.12
2023-04-16T02:37:01.550Z,40.12
2023-04-16T02:38:01.912Z,40.12
2023-04-16T02:39:00.975Z,42.43
2023-04-16T02:40:01.095Z,40.07
2023-04-16T02:41:02.381Z,40.12
2023-04-16T02:42:02.362Z,42.49
2023-04-16T02:43:02.330Z,40.07
2023-04-16T02:44:00.917Z,40.12
2023-04-16T02:45:00.949Z,40.12
2023-04-16T02:46:00.945Z,42.38
2023-04-16T02:47:00.871Z,40.07
2023-04-16T02:48:00.906Z,40.07
2023-04-16T02:49:00.836Z,42.38
2023-04-16T02:50:00.836Z,40.18
2023-04-16T02:51:00.834Z,40.07
2023-04-16T02:52:00.796Z,42.43
2023-04-16T02:53:00.801Z,40.07
2023-04-16T02:54:00.770Z,40.12
2023-04-16T02:55:00.767Z,40.07
2023-04-16T02:56:00.743Z,42.43
2023-04-16T02:57:00.744Z,40.07
2023-04-16T02:58:00.733Z,42.43
2023-04-16T02:59:00.706Z,40.07
2023-04-16T03:00:00.708Z,42.43
2023-04-16T03:01:00.748Z,40.07
2023-04-16T03:02:00.694Z,40.07
2023-04-16T03:03:00.684Z,40.07
2023-04-16T03:04:00.734Z,40.12
2023-04-16T03:05:00.650Z,40.07
2023-04-16T03:06:00.621Z,40.07
2023-04-16T03:07:00.611Z,40.12
2023-04-16T03:08:00.581Z,40.12
2023-04-16T03:09:00.580Z,40.12
2023-04-16T03:10:00.563Z,40.07
2023-04-16T03:11:00.545Z,40.07
2023-04-16T03:12:00.543Z,42.43
2023-04-16T03:13:00.546Z,40.12
2023-04-16T03:14:00.542Z,40.07
2023-04-16T03:15:00.534Z,42.43
2023-04-16T03:16:00.518Z,42.43
2023-04-16T03:17:00.475Z,40.12
2023-04-16T03:18:00.533Z,40.12
2023-04-16T03:19:00.474Z,42.38
2023-04-16T03:20:00.483Z,40.07
2023-04-16T03:21:00.410Z,40.12
2023-04-16T03:22:00.455Z,42.43
2023-04-16T03:23:00.401Z,40.07
2023-04-16T03:24:00.387Z,42.43
2023-04-16T03:25:00.376Z,40.07
2023-04-16T03:26:00.361Z,40.07
2023-04-16T03:27:00.353Z,40.07
2023-04-16T03:28:00.336Z,42.49
2023-04-16T03:29:00.344Z,42.43
2023-04-16T03:30:00.299Z,40.12
2023-04-16T03:31:00.304Z,40.07
2023-04-16T03:32:00.279Z,42.43
2023-04-16T03:33:00.392Z,40.07
2023-04-16T03:34:00.229Z,40.07
2023-04-16T03:35:00.280Z,40.12
2023-04-16T03:36:00.210Z,40.12
2023-04-16T03:37:00.209Z,40.07
2023-04-16T03:38:00.201Z,42.43
2023-04-16T03:39:00.189Z,40.12
2023-04-16T03:40:00.172Z,40.07
2023-04-16T03:41:00.189Z,40.12
2023-04-16T03:42:00.128Z,42.43
2023-04-16T03:43:00.125Z,42.49
2023-04-16T03:44:00.147Z,40.07
2023-04-16T03:45:00.131Z,40.12
2023-04-16T03:46:00.186Z,40.12
2023-04-16T03:47:00.074Z,40.12
2023-04-16T03:48:00.050Z,40.07
2023-04-16T03:49:01.211Z,40.07
2023-04-16T03:50:00.040Z,40.87
2023-04-16T03:51:00.010Z,40.12
2023-04-16T03:52:00.000Z,40.07
2023-04-16T03:52:59.996Z,40.07
2023-04-16T03:53:59.978Z,40.07
2023-04-16T03:54:59.981Z,40.07
2023-04-16T03:55:59.948Z,42.11
2023-04-16T03:56:59.934Z,40.07
2023-04-16T03:57:59.929Z,40.07
2023-04-16T03:58:59.937Z,42.43
2023-04-16T03:59:59.896Z,40.12
2023-04-16T04:00:59.898Z,40.07
2023-04-16T04:01:59.930Z,40.12
2023-04-16T04:03:00.180Z,40.12
2023-04-16T04:04:00.036Z,40.12
2023-04-16T04:04:59.931Z,40.07
2023-04-16T04:05:59.842Z,40.07
2023-04-16T04:06:59.819Z,40.12
2023-04-16T04:07:59.798Z,40.07
2023-04-16T04:08:59.775Z,42.49
2023-04-16T04:09:59.776Z,40.07
2023-04-16T04:10:59.771Z,40.12
2023-04-16T04:11:59.746Z,42.49
2023-04-16T04:12:59.732Z,40.07
2023-04-16T04:13:59.728Z,40.12
2023-04-16T04:14:59.708Z,40.07
2023-04-16T04:15:59.794Z,40.12
2023-04-16T04:16:59.669Z,40.12
2023-04-16T04:17:59.721Z,40.07
2023-04-16T04:18:59.659Z,40.12
2023-04-16T04:20:01.447Z,40.12
2023-04-16T04:20:59.614Z,40.12
2023-04-16T04:21:59.597Z,40.07
2023-04-16T04:22:59.618Z,40.12
2023-04-16T04:23:59.584Z,40.07
2023-04-16T04:24:59.586Z,40.07
2023-04-16T04:25:59.616Z,40.07
2023-04-16T04:26:59.535Z,42.43
2023-04-16T04:27:59.544Z,42.43
2023-04-16T04:28:59.521Z,40.07
2023-04-16T04:29:59.507Z,40.07
2023-04-16T04:30:59.492Z,42.43
2023-04-16T04:31:59.557Z,42.49
2023-04-16T04:32:59.594Z,40.07
2023-04-16T04:33:59.465Z,40.12
2023-04-16T04:34:59.442Z,42.43
2023-04-16T04:35:59.425Z,40.07
2023-04-16T04:36:59.409Z,40.12
2023-04-16T04:37:59.384Z,40.07
2023-04-16T04:38:59.373Z,40.07
2023-04-16T04:39:59.414Z,42.38
2023-04-16T04:40:59.348Z,40.07
2023-04-16T04:41:59.349Z,42.32
2023-04-16T04:42:59.333Z,42.43
2023-04-16T04:43:59.319Z,42.38
2023-04-16T04:44:59.294Z,40.07
2023-04-16T04:45:59.330Z,40.07
2023-04-16T04:46:59.273Z,40.07
2023-04-16T04:47:59.383Z,40.18
2023-04-16T04:48:59.250Z,40.12
2023-04-16T04:49:59.235Z,40.07
2023-04-16T04:50:59.230Z,40.12
2023-04-16T04:51:59.216Z,42.43
2023-04-16T04:52:59.224Z,40.07
2023-04-16T04:53:59.177Z,40.44
2023-04-16T04:54:59.214Z,40.23
2023-04-16T04:56:09.156Z,40.07
2023-04-16T04:57:00.166Z,40.12
2023-04-16T04:57:59.118Z,42.43
2023-04-16T04:58:59.135Z,42.38
2023-04-16T04:59:59.094Z,42.38
2023-04-16T05:00:59.138Z,40.07
2023-04-16T05:01:59.111Z,42.43
2023-04-16T05:02:59.133Z,42.43
2023-04-16T05:03:59.128Z,40.07
2023-04-16T05:04:59.062Z,42.43
2023-04-16T05:05:59.079Z,40.23
2023-04-16T05:06:59.002Z,40.12
2023-04-16T05:07:59.017Z,40.07
2023-04-16T05:08:58.984Z,40.12
2023-04-16T05:09:59.012Z,40.07
2023-04-16T05:10:58.949Z,42.43
2023-04-16T05:11:58.933Z,42.32
2023-04-16T05:12:58.981Z,40.07
2023-04-16T05:13:58.917Z,40.12
2023-04-16T05:14:58.894Z,40.12
2023-04-16T05:15:58.905Z,42.43
2023-04-16T05:16:58.990Z,40.07
2023-04-16T05:17:58.914Z,42.43
2023-04-16T05:18:58.857Z,40.12
2023-04-16T05:19:58.836Z,40.07
2023-04-16T05:20:58.843Z,42.32
2023-04-16T05:21:58.804Z,40.12
2023-04-16T05:22:58.805Z,42.43
2023-04-16T05:23:58.788Z,40.07
2023-04-16T05:24:58.779Z,40.18
2023-04-16T05:25:58.779Z,40.12
2023-04-16T05:26:58.754Z,42.38
2023-04-16T05:27:58.749Z,40.07
2023-04-16T05:28:58.724Z,42.38
2023-04-16T05:29:58.710Z,42.43
2023-04-16T05:30:59.012Z,40.07
2023-04-16T05:31:58.677Z,42.43
2023-04-16T05:32:58.732Z,40.07
2023-04-16T05:33:58.699Z,40.07
2023-04-16T05:34:58.643Z,42.43
2023-04-16T05:35:58.637Z,40.07
2023-04-16T05:36:58.616Z,42.43
2023-04-16T05:37:58.614Z,40.07
2023-04-16T05:38:58.582Z,42.43
2023-04-16T05:39:58.598Z,40.12
2023-04-16T05:40:58.609Z,42.43
2023-04-16T05:41:58.546Z,40.07
2023-04-16T05:42:58.536Z,42.43
2023-04-16T05:43:58.516Z,40.07
2023-04-16T05:44:58.506Z,40.12
2023-04-16T05:45:58.569Z,40.07
2023-04-16T05:46:58.482Z,40.07
2023-04-16T05:47:58.517Z,42.43
2023-04-16T05:48:58.462Z,42.38
2023-04-16T05:49:58.435Z,40.07
2023-04-16T05:50:58.437Z,42.43
2023-04-16T05:51:58.401Z,42.43
2023-04-16T05:52:58.402Z,40.07
2023-04-16T05:53:58.412Z,42.49
2023-04-16T05:54:58.370Z,42.43
2023-04-16T05:55:58.394Z,42.43
2023-04-16T05:56:58.355Z,40.07
2023-04-16T05:57:58.354Z,42.43
2023-04-16T05:58:58.324Z,40.12
2023-04-16T05:59:58.330Z,40.07
2023-04-16T06:00:58.323Z,40.12
2023-04-16T06:01:58.366Z,40.12
2023-04-16T06:02:58.381Z,40.12
2023-04-16T06:03:58.373Z,40.12
2023-04-16T06:04:58.256Z,40.07
2023-04-16T06:05:58.361Z,40.01
2023-04-16T06:06:58.222Z,42.43
2023-04-16T06:07:58.215Z,40.07
2023-04-16T06:08:58.188Z,42.43
2023-04-16T06:09:58.186Z,40.12
2023-04-16T06:10:58.193Z,40.12
2023-04-16T06:11:58.155Z,40.07
2023-04-16T06:12:58.141Z,40.12
2023-04-16T06:13:58.134Z,40.07
2023-04-16T06:14:58.111Z,42.43
2023-04-16T06:15:58.834Z,40.12
2023-04-16T06:16:58.095Z,40.07
2023-04-16T06:18:00.260Z,40.12
2023-04-16T06:18:58.047Z,40.12
2023-04-16T06:19:58.055Z,40.12
2023-04-16T06:20:58.057Z,42.16
2023-04-16T06:21:58.037Z,40.07
2023-04-16T06:22:57.993Z,40.07
2023-04-16T06:23:57.994Z,42.43
2023-04-16T06:24:57.991Z,40.87
2023-04-16T06:25:57.985Z,40.12
2023-04-16T06:26:57.972Z,40.12
2023-04-16T06:27:57.935Z,42.43
2023-04-16T06:28:57.953Z,40.12
2023-04-16T06:29:57.936Z,40.12
2023-04-16T06:30:57.920Z,42.43
2023-04-16T06:31:57.904Z,40.07
2023-04-16T06:32:57.921Z,40.07
2023-04-16T06:33:57.862Z,42.43
2023-04-16T06:34:57.966Z,40.07
2023-04-16T06:35:57.836Z,40.12
2023-04-16T06:36:57.826Z,40.12
2023-04-16T06:37:57.811Z,40.07
2023-04-16T06:38:57.798Z,40.12
2023-04-16T06:39:57.768Z,40.12
2023-04-16T06:40:57.770Z,40.07
2023-04-16T06:41:57.761Z,40.18
2023-04-16T06:42:57.825Z,40.12
2023-04-16T06:43:57.723Z,40.07
2023-04-16T06:44:57.733Z,42.43
2023-04-16T06:45:57.707Z,40.71
2023-04-16T06:46:57.767Z,40.07
2023-04-16T06:47:57.773Z,42.43
2023-04-16T06:48:57.665Z,40.12
2023-04-16T06:49:57.655Z,40.12
2023-04-16T06:50:57.656Z,40.07
2023-04-16T06:51:57.627Z,40.07
2023-04-16T06:52:57.599Z,42.43
2023-04-16T06:53:57.599Z,40.12
2023-04-16T06:54:57.573Z,40.12
2023-04-16T06:55:57.588Z,40.12
2023-04-16T06:56:57.590Z,40.12
2023-04-16T06:57:57.559Z,40.07
2023-04-16T06:58:57.526Z,40.07
2023-04-16T06:59:57.785Z,40.12
2023-04-16T07:00:57.513Z,40.07
2023-04-16T07:01:57.642Z,42.43
2023-04-16T07:02:58.765Z,40.12
2023-04-16T07:03:57.554Z,40.12
2023-04-16T07:04:57.463Z,40.07
2023-04-16T07:05:57.451Z,40.07
2023-04-16T07:06:57.413Z,44.53
2023-04-16T07:07:57.405Z,40.12
2023-04-16T07:08:57.405Z,40.07
2023-04-16T07:09:57.381Z,42.43
2023-04-16T07:10:57.388Z,42.43
2023-04-16T07:11:57.355Z,42.43
2023-04-16T07:12:57.387Z,42.43
2023-04-16T07:13:57.329Z,40.12
2023-04-16T07:14:57.316Z,42.43
2023-04-16T07:15:57.322Z,40.07
2023-04-16T07:16:57.319Z,40.18
2023-04-16T07:17:57.421Z,40.12
2023-04-16T07:18:57.272Z,42.49
2023-04-16T07:19:57.243Z,42.43
2023-04-16T07:20:57.236Z,40.12
2023-04-16T07:21:57.229Z,40.12
2023-04-16T07:22:57.196Z,42.43
2023-04-16T07:23:57.190Z,40.12
2023-04-16T07:24:57.174Z,42.43
2023-04-16T07:25:57.176Z,40.07
2023-04-16T07:26:57.188Z,42.49
2023-04-16T07:27:57.143Z,40.07
2023-04-16T07:28:57.136Z,40.12
2023-04-16T07:29:57.128Z,40.12
2023-04-16T07:30:57.122Z,40.12
2023-04-16T07:31:57.124Z,40.12
2023-04-16T07:32:57.107Z,42.43
2023-04-16T07:33:57.063Z,40.07
2023-04-16T07:34:57.049Z,40.07
2023-04-16T07:35:57.052Z,42.43
2023-04-16T07:36:57.767Z,40.07
2023-04-16T07:37:57.034Z,40.12
2023-04-16T07:38:56.991Z,40.07
2023-04-16T07:39:57.416Z,40.12
2023-04-16T07:40:57.011Z,40.12
2023-04-16T07:41:56.970Z,40.07
2023-04-16T07:42:56.995Z,40.12
2023-04-16T07:43:56.932Z,40.12
2023-04-16T07:44:56.919Z,40.12
2023-04-16T07:45:56.942Z,40.12
2023-04-16T07:46:57.062Z,40.07
2023-04-16T07:47:56.942Z,40.12
2023-04-16T07:48:56.862Z,40.07
2023-04-16T07:49:57.571Z,40.07
2023-04-16T07:50:56.859Z,42.43
2023-04-16T07:51:56.823Z,40.12
2023-04-16T07:52:56.810Z,40.01
2023-04-16T07:53:56.800Z,40.07
2023-04-16T07:54:56.817Z,42.43
2023-04-16T07:55:56.787Z,40.07
2023-04-16T07:56:56.759Z,40.07
2023-04-16T07:57:56.737Z,42.43
2023-04-16T07:58:57.439Z,42.38
2023-04-16T07:59:56.718Z,42.43
2023-04-16T08:00:56.726Z,42.43
2023-04-16T08:01:56.704Z,42.43
2023-04-16T08:02:56.897Z,40.12
2023-04-16T08:03:56.821Z,40.07
2023-04-16T08:04:56.752Z,42.43
2023-04-16T08:05:56.657Z,42.43
2023-04-16T08:06:56.659Z,42.43
2023-04-16T08:07:56.623Z,42.43
2023-04-16T08:08:56.608Z,42.43
2023-04-16T08:09:56.635Z,42.43
2023-04-16T08:10:56.635Z,42.38
2023-04-16T08:11:56.567Z,42.49
2023-04-16T08:12:56.554Z,42.43
2023-04-16T08:13:56.534Z,40.07
2023-04-16T08:14:56.521Z,42.43
2023-04-16T08:15:56.584Z,42.43
2023-04-16T08:16:56.530Z,42.43
2023-04-16T08:17:56.519Z,42.43
2023-04-16T08:18:56.469Z,42.43
2023-04-16T08:19:56.468Z,42.43
2023-04-16T08:20:56.445Z,42.43
2023-04-16T08:21:56.444Z,41.57
2023-04-16T08:22:56.417Z,42.38
2023-04-16T08:23:56.409Z,42.43
2023-04-16T08:24:56.386Z,42.43
2023-04-16T08:25:56.374Z,42.38
2023-04-16T08:27:02.486Z,42.43
2023-04-16T08:27:57.349Z,42.43
2023-04-16T08:28:56.336Z,42.43
2023-04-16T08:29:56.327Z,42.43
2023-04-16T08:30:56.377Z,42.43
2023-04-16T08:31:56.361Z,42.43
2023-04-16T08:32:56.344Z,42.43
2023-04-16T08:33:56.297Z,45.01
2023-04-16T08:34:56.262Z,42.43
2023-04-16T08:35:56.251Z,42.43
2023-04-16T08:36:56.265Z,42.49
2023-04-16T08:37:56.340Z,42.43
2023-04-16T08:38:56.249Z,42.43
2023-04-16T08:39:56.217Z,42.38
2023-04-16T08:40:56.190Z,42.43
2023-04-16T08:41:56.202Z,44.96
2023-04-16T08:42:56.174Z,45.01
2023-04-16T08:43:56.170Z,45.01
2023-04-16T08:44:56.132Z,44.53
2023-04-16T08:45:56.131Z,44.96
2023-04-16T08:46:56.179Z,44.96
2023-04-16T08:47:56.162Z,42.43
2023-04-16T08:48:56.098Z,44.96
2023-04-16T08:49:58.321Z,44.96
2023-04-16T08:50:56.091Z,44.90
2023-04-16T08:51:56.114Z,44.96
2023-04-16T08:52:56.038Z,44.96
2023-04-16T08:53:56.042Z,45.01
2023-04-16T08:54:56.495Z,45.01
2023-04-16T08:55:55.997Z,44.96
2023-04-16T08:56:56.001Z,44.96
2023-04-16T08:57:55.971Z,45.01
2023-04-16T08:58:55.971Z,44.96
2023-04-16T08:59:55.958Z,45.01
2023-04-16T09:00:55.958Z,44.96
2023-04-16T09:01:56.008Z,45.01
2023-04-16T09:02:56.166Z,45.01
2023-04-16T09:03:56.047Z,45.01
2023-04-16T09:04:57.064Z,44.96
2023-04-16T09:05:55.877Z,45.01
2023-04-16T09:06:55.893Z,44.96
2023-04-16T09:07:55.858Z,44.96
2023-04-16T09:08:55.823Z,44.96
2023-04-16T09:09:55.810Z,45.06
2023-04-16T09:10:55.857Z,44.96
2023-04-16T09:11:55.797Z,44.96
2023-04-16T09:12:55.840Z,44.96
2023-04-16T09:13:55.768Z,45.01
2023-04-16T09:14:55.769Z,47.53
2023-04-16T09:15:55.778Z,44.96
2023-04-16T09:16:55.765Z,47.48
2023-04-16T09:17:55.747Z,47.53
2023-04-16T09:18:55.686Z,47.48
2023-04-16T09:19:55.690Z,47.48
2023-04-16T09:20:55.695Z,44.96
2023-04-16T09:21:55.657Z,45.01
2023-04-16T09:22:55.658Z,47.48
2023-04-16T09:23:55.654Z,47.48
2023-04-16T09:24:55.657Z,47.53
2023-04-16T09:25:55.660Z,47.53
2023-04-16T09:26:55.587Z,47.59
2023-04-16T09:27:55.586Z,47.53
2023-04-16T09:28:55.580Z,47.59
2023-04-16T09:29:55.538Z,47.48
2023-04-16T09:30:55.544Z,47.53
2023-04-16T09:31:55.550Z,47.53
2023-04-16T09:32:55.537Z,47.53
2023-04-16T09:33:55.501Z,47.48
2023-04-16T09:34:55.483Z,47.48
2023-04-16T09:35:55.505Z,47.53
2023-04-16T09:36:55.486Z,47.48
2023-04-16T09:37:55.448Z,47.48
2023-04-16T09:38:57.541Z,47.48
2023-04-16T09:39:55.823Z,47.48
2023-04-16T09:40:55.522Z,47.53
2023-04-16T09:41:55.501Z,47.48
2023-04-16T09:42:55.524Z,47.48
2023-04-16T09:43:55.352Z,47.53
2023-04-16T09:44:56.866Z,47.48
2023-04-16T09:45:55.365Z,47.48
2023-04-16T09:46:55.335Z,47.48
2023-04-16T09:47:55.324Z,47.53
2023-04-16T09:48:55.283Z,47.48
2023-04-16T09:49:55.274Z,47.48
2023-04-16T09:50:55.272Z,47.48
2023-04-16T09:51:55.260Z,47.53
2023-04-16T09:52:55.251Z,47.53
2023-04-16T09:53:55.237Z,47.53
2023-04-16T09:54:55.251Z,47.53
2023-04-16T09:55:55.233Z,47.48
2023-04-16T09:56:55.202Z,47.53
2023-04-16T09:57:55.180Z,47.48
2023-04-16T09:58:55.173Z,47.48
2023-04-16T09:59:55.154Z,47.48
2023-04-16T10:00:55.180Z,47.53
2023-04-16T10:02:12.294Z,47.53
2023-04-16T10:02:56.191Z,47.48
2023-04-16T10:03:55.329Z,47.59
2023-04-16T10:04:55.158Z,47.48
2023-04-16T10:05:55.077Z,47.53
2023-04-16T10:07:55.080Z,47.53
2023-04-16T10:08:55.057Z,47.53
2023-04-16T10:09:55.044Z,47.53
2023-04-16T10:10:55.056Z,47.53
2023-04-16T10:11:55.178Z,47.48
2023-04-16T10:12:55.139Z,47.53
2023-04-16T10:13:55.099Z,47.48
2023-04-16T10:14:54.997Z,47.48
2023-04-16T10:15:54.988Z,47.53
2023-04-16T10:16:55.035Z,47.48
2023-04-16T10:17:54.995Z,47.53
2023-04-16T10:18:54.944Z,47.48
2023-04-16T10:19:54.909Z,47.53
2023-04-16T10:20:54.903Z,47.53
2023-04-16T10:21:54.884Z,47.48
2023-04-16T10:22:54.879Z,47.48
2023-04-16T10:23:54.896Z,47.48
2023-04-16T10:24:54.907Z,47.48
2023-04-16T10:25:57.385Z,47.53
2023-04-16T10:26:54.839Z,47.53
2023-04-16T10:27:54.831Z,47.48
2023-04-16T10:28:54.818Z,47.53
2023-04-16T10:29:54.825Z,47.48
2023-04-16T10:30:54.871Z,47.53
2023-04-16T10:31:54.753Z,47.53
2023-04-16T10:32:54.819Z,47.48
2023-04-16T10:33:54.721Z,47.48
2023-04-16T10:34:54.709Z,47.48
2023-04-16T10:36:06.787Z,47.53
2023-04-16T10:36:55.688Z,47.48
2023-04-16T10:37:54.671Z,47.53
2023-04-16T10:38:54.695Z,47.53
2023-04-16T10:39:54.647Z,47.48
2023-04-16T10:40:54.620Z,47.48
2023-04-16T10:41:54.621Z,47.48
2023-04-16T10:42:54.611Z,50.06
2023-04-16T10:43:54.598Z,47.53
2023-04-16T10:44:54.585Z,47.53
2023-04-16T10:45:54.607Z,47.53
2023-04-16T10:46:54.563Z,47.53
2023-04-16T10:47:54.558Z,47.48
2023-04-16T10:48:54.533Z,47.53
2023-04-16T10:49:54.521Z,47.53
2023-04-16T10:50:54.496Z,47.48
2023-04-16T10:51:54.492Z,47.53
2023-04-16T10:52:54.518Z,47.53
2023-04-16T10:53:54.473Z,45.01
2023-04-16T10:54:54.441Z,45.01
2023-04-16T10:55:54.458Z,47.53
2023-04-16T10:56:54.433Z,47.53
2023-04-16T10:57:54.416Z,47.48
2023-04-16T10:58:54.384Z,47.48
2023-04-16T10:59:54.403Z,47.53
2023-04-16T11:00:54.365Z,47.48
2023-04-16T11:01:54.460Z,47.53
2023-04-16T11:02:54.520Z,47.53
2023-04-16T11:03:54.554Z,47.53
2023-04-16T11:04:54.399Z,47.53
2023-04-16T11:05:54.307Z,47.53
2023-04-16T11:06:54.334Z,47.53
2023-04-16T11:07:54.280Z,45.01
2023-04-16T11:08:55.375Z,47.48
2023-04-16T11:09:54.255Z,47.53
2023-04-16T11:10:54.247Z,47.48
2023-04-16T11:11:54.236Z,47.53
2023-04-16T11:12:54.212Z,44.96
2023-04-16T11:13:54.181Z,47.53
2023-04-16T11:14:54.177Z,47.48
2023-04-16T11:15:54.182Z,45.01
2023-04-16T11:16:54.169Z,45.01
2023-04-16T11:17:54.147Z,44.96
2023-04-16T11:18:56.693Z,44.96
2023-04-16T11:19:54.106Z,47.48
2023-04-16T11:20:54.096Z,47.48
2023-04-16T11:21:54.080Z,45.01
2023-04-16T11:22:54.072Z,44.96
2023-04-16T11:23:54.042Z,45.01
2023-04-16T11:24:54.029Z,44.96
2023-04-16T11:25:54.018Z,45.06
2023-04-16T11:26:54.037Z,45.01
2023-04-16T11:27:53.984Z,44.96
2023-04-16T11:28:53.989Z,44.96
2023-04-16T11:29:53.966Z,44.96
2023-04-16T11:30:53.957Z,45.01
2023-04-16T11:31:54.033Z,45.01
2023-04-16T11:32:53.981Z,44.96
2023-04-16T11:33:54.058Z,45.01
2023-04-16T11:34:53.910Z,47.48
2023-04-16T11:35:53.885Z,45.01
2023-04-16T11:36:53.887Z,45.01
2023-04-16T11:37:53.858Z,44.96
2023-04-16T11:38:53.850Z,47.53
2023-04-16T11:39:53.833Z,45.01
2023-04-16T11:40:53.828Z,45.01
2023-04-16T11:41:53.819Z,44.96
2023-04-16T11:42:53.815Z,44.96
2023-04-16T11:43:53.795Z,45.01
2023-04-16T11:44:53.794Z,44.96
2023-04-16T11:45:53.769Z,47.48
2023-04-16T11:46:53.816Z,45.01
2023-04-16T11:47:53.765Z,44.96
2023-04-16T11:48:53.721Z,45.01
2023-04-16T11:49:53.696Z,45.01
2023-04-16T11:50:53.693Z,44.96
2023-04-16T11:51:53.691Z,47.48
2023-04-16T11:52:53.678Z,45.01
2023-04-16T11:53:53.652Z,45.01
2023-04-16T11:54:53.652Z,45.01
2023-04-16T11:55:53.621Z,45.01
2023-04-16T11:56:53.690Z,45.01
2023-04-16T11:57:53.591Z,45.01
2023-04-16T11:58:53.624Z,45.01
2023-04-16T12:00:02.186Z,45.01
2023-04-16T12:00:54.565Z,44.96
2023-04-16T12:01:53.626Z,45.01
2023-04-16T12:02:54.056Z,45.01
2023-04-16T12:03:53.771Z,45.01
2023-04-16T12:04:53.579Z,44.90
2023-04-16T12:05:53.484Z,44.96
2023-04-16T12:06:53.495Z,44.90
2023-04-16T12:07:53.470Z,45.01
2023-04-16T12:08:53.458Z,45.01
2023-04-16T12:09:53.440Z,45.01
2023-04-16T12:10:53.420Z,44.96
2023-04-16T12:11:53.418Z,44.96
2023-04-16T12:12:53.406Z,45.01
2023-04-16T12:13:53.375Z,45.01
2023-04-16T12:14:53.373Z,45.01
2023-04-16T12:15:53.354Z,44.96
2023-04-16T12:16:53.438Z,44.96
2023-04-16T12:17:53.342Z,44.96
2023-04-16T12:18:53.320Z,45.01
2023-04-16T12:19:53.292Z,45.01
2023-04-16T12:20:53.361Z,45.01
2023-04-16T12:21:53.424Z,45.12
2023-04-16T12:22:53.264Z,45.01
2023-04-16T12:23:53.244Z,45.01
2023-04-16T12:24:53.258Z,44.96
2023-04-16T12:25:53.224Z,45.01
2023-04-16T12:26:53.213Z,45.01
2023-04-16T12:27:54.028Z,44.96
2023-04-16T12:28:53.188Z,44.96
2023-04-16T12:29:53.158Z,45.12
2023-04-16T12:30:53.234Z,44.96
2023-04-16T12:31:53.165Z,44.96
2023-04-16T12:32:53.216Z,45.01
2023-04-16T12:33:53.116Z,45.01
2023-04-16T12:34:53.109Z,44.96
2023-04-16T12:35:53.105Z,44.96
2023-04-16T12:36:53.084Z,44.96
2023-04-16T12:37:53.058Z,45.01
2023-04-16T12:38:53.053Z,44.96
2023-04-16T12:39:53.040Z,45.01
2023-04-16T12:40:53.025Z,45.01
2023-04-16T12:41:53.006Z,45.01
2023-04-16T12:42:52.995Z,44.96
2023-04-16T12:43:52.979Z,44.96
2023-04-16T12:44:52.980Z,44.96
2023-04-16T12:45:53.105Z,45.01
2023-04-16T12:46:52.970Z,45.01
2023-04-16T12:47:52.951Z,44.96
2023-04-16T12:48:52.973Z,45.01
2023-04-16T12:49:52.953Z,45.01
2023-04-16T12:50:52.894Z,45.01
2023-04-16T12:51:52.902Z,45.01
2023-04-16T12:52:52.863Z,45.01